createdAt,value
2023-04-17T00:01:44.481Z,8.65
2023-04-17T00:06:45.231Z,8.64
2023-04-17T00:11:45.839Z,8.64
2023-04-17T00:16:47.839Z,8.60
2023-04-17T00:21:48.513Z,8.60
2023-04-17T00:26:49.097Z,8.61
2023-04-17T00:31:51.188Z,8.61
2023-04-17T00:36:52.037Z,8.62
2023-04-17T00:41:52.873Z,8.66
2023-04-17T00:46:54.995Z,8.66
2023-04-17T00:51:55.948Z,8.61
2023-04-17T00:56:58.195Z,8.56
2023-04-17T01:02:01.485Z,8.56
2023-04-17T01:07:02.250Z,8.60
2023-04-17T01:12:22.246Z,8.52
2023-04-17T01:17:26.242Z,8.56
2023-04-17T01:22:26.973Z,8.61
2023-04-17T01:27:32.863Z,8.60
2023-04-17T01:32:33.552Z,8.51
2023-04-17T01:37:34.304Z,8.50
2023-04-17T01:42:36.325Z,8.55
2023-04-17T01:47:37.146Z,8.57
2023-04-17T01:52:39.712Z,8.49
2023-04-17T01:57:42.329Z,8.47
2023-04-17T02:02:43.256Z,8.43
2023-04-17T02:07:44.042Z,8.43
2023-04-17T02:12:46.018Z,8.50
2023-04-17T02:17:46.700Z,8.47
2023-04-17T02:22:47.275Z,8.50
2023-04-17T02:27:49.207Z,8.43
2023-04-17T02:32:51.870Z,8.44
2023-04-17T02:37:52.944Z,8.42
2023-04-17T02:42:57.790Z,8.39
2023-04-17T02:47:58.545Z,8.34
2023-04-17T02:52:59.214Z,8.33
2023-04-17T02:58:01.146Z,8.42
2023-04-17T03:03:03.167Z,8.44
2023-04-17T03:08:04.266Z,8.44
2023-04-17T03:13:12.537Z,8.42
2023-04-17T03:18:13.227Z,8.40
2023-04-17T03:23:13.834Z,8.37
2023-04-17T03:28:15.998Z,8.35
2023-04-17T03:33:17.273Z,8.34
2023-04-17T03:38:18.734Z,8.32
2023-04-17T03:43:20.927Z,8.35
2023-04-17T03:48:21.557Z,8.31
2023-04-17T03:53:24.121Z,8.32
2023-04-17T03:58:26.428Z,8.29
2023-04-17T04:03:27.681Z,8.27
2023-04-17T04:08:28.844Z,8.26
2023-04-17T04:13:30.817Z,8.56
2023-04-17T04:18:35.010Z,8.35
2023-04-17T04:23:37.798Z,8.40
2023-04-17T04:28:40.130Z,8.39
2023-04-17T04:33:47.733Z,8.42
2023-04-17T04:38:49.823Z,8.36
2023-04-17T04:43:59.131Z,8.35
2023-04-17T04:49:00.905Z,8.25
2023-04-17T04:54:02.085Z,8.23
2023-04-17T04:59:04.111Z,8.20
2023-04-17T05:04:08.710Z,8.23
2023-04-17T05:09:09.701Z,8.22
2023-04-17T05:14:12.183Z,8.18
2023-04-17T05:19:13.626Z,8.23
2023-04-17T05:24:23.105Z,8.25
2023-04-17T05:29:25.817Z,8.16
2023-04-17T05:34:27.220Z,8.15
2023-04-17T05:39:28.316Z,8.16
2023-04-17T05:44:31.369Z,8.23
2023-04-17T05:49:32.108Z,8.23
2023-04-17T05:54:32.768Z,8.29
2023-04-17T05:59:34.857Z,8.33
2023-04-17T06:04:36.211Z,8.37
2023-04-17T06:09:37.706Z,8.34
2023-04-17T06:14:39.629Z,8.38
2023-04-17T06:19:42.191Z,8.39
2023-04-17T06:24:42.780Z,8.46
2023-04-17T06:29:44.783Z,8.41
2023-04-17T06:34:58.578Z,8.37
2023-04-17T06:40:13.453Z,8.40
2023-04-17T06:45:15.852Z,8.40
2023-04-17T06:50:16.766Z,8.32
2023-04-17T06:55:17.943Z,8.33
2023-04-17T07:00:21.239Z,8.53
2023-04-17T07:05:21.862Z,8.48
2023-04-17T07:10:22.466Z,8.42
2023-04-17T07:15:24.467Z,8.31
2023-04-17T07:20:25.524Z,8.22
2023-04-17T07:25:26.449Z,8.31
2023-04-17T07:30:28.632Z,8.48
2023-04-17T07:35:29.522Z,8.61
2023-04-17T07:40:30.618Z,8.57
2023-04-17T07:45:33.648Z,8.40
2023-04-17T07:50:34.463Z,8.40
2023-04-17T07:55:35.688Z,8.54
2023-04-17T08:00:37.792Z,8.64
2023-04-17T08:05:38.470Z,8.58
2023-04-17T08:10:39.062Z,8.44
2023-04-17T08:15:41.023Z,8.39
2023-04-17T08:20:41.873Z,8.36
2023-04-17T08:25:42.666Z,8.37
2023-04-17T08:30:44.760Z,8.33
2023-04-17T08:35:45.738Z,8.22
2023-04-17T08:40:52.102Z,8.44
2023-04-17T08:45:55.396Z,8.60
2023-04-17T08:50:56.310Z,8.77
2023-04-17T08:55:58.994Z,9.06
2023-04-17T09:01:09.021Z,9.04
2023-04-17T09:06:10.872Z,9.02
2023-04-17T09:11:17.662Z,8.78
2023-04-17T09:16:20.540Z,9.02
2023-04-17T09:21:21.229Z,9.34
2023-04-17T09:26:23.838Z,9.82
2023-04-17T09:31:27.788Z,10.16
2023-04-17T09:36:30.580Z,9.51
2023-04-17T09:41:33.301Z,9.45
2023-04-17T09:46:38.491Z,9.60
2023-04-17T09:51:39.869Z,9.81
2023-04-17T09:56:41.191Z,10.02
2023-04-17T10:01:43.606Z,9.97
2023-04-17T10:06:44.340Z,9.74
2023-04-17T10:11:47.106Z,9.32
2023-04-17T10:16:50.489Z,9.32
2023-04-17T10:22:24.860Z,9.07
2023-04-17T10:27:48.198Z,9.42
2023-04-17T10:33:22.623Z,9.55
2023-04-17T10:38:35.621Z,9.88
2023-04-17T10:43:36.257Z,9.98
2023-04-17T10:48:39.070Z,9.93
2023-04-17T10:53:46.276Z,9.75
2023-04-17T10:58:58.556Z,9.63
2023-04-17T11:04:00.573Z,9.52
2023-04-17T11:09:03.313Z,9.60
2023-04-17T11:14:06.957Z,9.41
2023-04-17T11:19:09.870Z,9.44
2023-04-17T11:24:12.133Z,9.37
2023-04-17T11:29:16.882Z,9.21
2023-04-17T11:34:17.743Z,9.27
2023-04-17T11:39:20.360Z,9.53
2023-04-17T11:44:21.322Z,9.41
2023-04-17T11:49:26.389Z,9.35
2023-04-17T11:54:28.801Z,9.82
2023-04-17T11:59:34.212Z,10.18
2023-04-17T12:04:36.465Z,10.23
2023-04-17T12:09:38.756Z,9.86
2023-04-17T12:14:39.384Z,9.56
2023-04-17T12:19:39.978Z,9.57
2023-04-17T12:24:41.939Z,9.39
2023-04-17T12:29:44.823Z,9.46
2023-04-17T12:34:46.033Z,9.62
2023-04-17T12:39:48.110Z,9.61
2023-04-17T12:44:48.692Z,9.39
2023-04-17T12:49:49.266Z,9.62
2023-04-17T12:54:51.665Z,9.90
2023-04-17T12:59:53.051Z,9.97
2023-04-17T13:04:54.002Z,10.10
2023-04-17T13:09:55.916Z,10.13
2023-04-17T13:14:57.537Z,9.97
2023-04-17T13:19:58.191Z,9.63
2023-04-17T13:25:00.248Z,9.68
2023-04-17T13:30:00.907Z,9.63
2023-04-17T13:35:02.142Z,9.62
2023-04-17T13:40:05.678Z,9.39
2023-04-17T13:45:08.160Z,9.57
2023-04-17T13:50:10.506Z,9.41
2023-04-17T13:55:14.791Z,9.37
2023-04-17T14:00:17.297Z,9.45
2023-04-17T14:05:18.119Z,9.46
2023-04-17T14:10:20.423Z,9.22
2023-04-17T14:15:32.634Z,9.19
2023-04-17T14:20:35.940Z,9.23
2023-04-17T14:25:38.560Z,9.22
2023-04-17T14:30:39.240Z,9.18
2023-04-17T14:35:40.513Z,9.14
2023-04-17T14:40:42.457Z,9.11
2023-04-17T14:45:43.131Z,9.46
2023-04-17T14:50:43.813Z,9.77
2023-04-17T14:55:46.264Z,9.46
2023-04-17T15:00:47.161Z,9.58
2023-04-17T15:05:48.065Z,9.56
2023-04-17T15:10:51.466Z,9.69
2023-04-17T15:15:52.925Z,9.73
2023-04-17T15:20:53.611Z,9.83
2023-04-17T15:25:57.381Z,9.78
2023-04-17T15:30:58.011Z,9.62
2023-04-17T15:35:59.517Z,9.38
2023-04-17T15:41:03.515Z,9.39
2023-04-17T15:46:04.444Z,9.11
2023-04-17T15:51:05.591Z,9.00
2023-04-17T15:56:08.434Z,8.77
2023-04-17T16:01:10.663Z,8.58
2023-04-17T16:06:12.002Z,8.63
2023-04-17T16:11:14.104Z,8.54
2023-04-17T16:16:14.956Z,8.54
2023-04-17T16:21:15.671Z,8.50
2023-04-17T16:26:17.593Z,8.42
2023-04-17T16:31:18.326Z,8.39
2023-04-17T16:36:19.194Z,8.26
2023-04-17T16:41:21.413Z,8.37
2023-04-17T16:46:35.538Z,8.20
2023-04-17T16:51:45.708Z,8.10
2023-04-17T16:56:47.934Z,8.18
2023-04-17T17:01:49.715Z,8.16
2023-04-17T17:06:50.731Z,8.23
2023-04-17T17:11:52.675Z,8.05
2023-04-17T17:16:53.402Z,8.01
2023-04-17T17:21:55.130Z,7.97
2023-04-17T17:26:57.334Z,8.04
2023-04-17T17:31:58.071Z,8.05
2023-04-17T17:36:59.877Z,7.94
2023-04-17T17:42:04.265Z,7.88
2023-04-17T17:47:07.045Z,7.89
2023-04-17T17:52:09.996Z,7.92
2023-04-17T17:57:12.085Z,7.95
2023-04-17T18:02:13.588Z,7.86
2023-04-17T18:07:14.556Z,7.76
2023-04-17T18:12:17.322Z,7.78
2023-04-17T18:17:19.440Z,7.88
2023-04-17T18:22:20.650Z,7.77
2023-04-17T18:27:23.035Z,7.90
2023-04-17T18:32:23.911Z,7.90
2023-04-17T18:37:26.865Z,7.83
2023-04-17T18:42:28.929Z,7.84
2023-04-17T18:47:29.604Z,7.86
2023-04-17T18:52:30.253Z,7.79
2023-04-17T18:57:32.214Z,7.75
2023-04-17T19:02:33.033Z,7.73
2023-04-17T19:07:33.798Z,7.84
2023-04-17T19:12:36.079Z,7.62
2023-04-17T19:17:36.794Z,7.51
2023-04-17T19:22:37.432Z,7.49
2023-04-17T19:27:39.401Z,7.53
2023-04-17T19:32:40.104Z,7.49
2023-04-17T19:37:40.923Z,7.63
2023-04-17T19:42:42.989Z,7.32
2023-04-17T19:47:43.595Z,7.33
2023-04-17T19:52:44.291Z,7.25
2023-04-17T19:57:46.241Z,7.39
2023-04-17T20:02:47.862Z,7.43
2023-04-17T20:07:48.638Z,7.53
2023-04-17T20:12:50.572Z,7.42
2023-04-17T20:17:52.034Z,7.47
2023-04-17T20:22:53.128Z,7.27
2023-04-17T20:27:55.544Z,7.25
2023-04-17T20:32:56.235Z,7.27
2023-04-17T20:37:57.373Z,7.31
2023-04-17T20:42:59.351Z,7.23
2023-04-17T20:48:00.109Z,7.13
2023-04-17T20:53:00.839Z,7.07
2023-04-17T20:58:02.767Z,7.02
2023-04-17T21:03:03.607Z,7.01
2023-04-17T21:08:04.262Z,7.10
2023-04-17T21:13:06.157Z,7.19
2023-04-17T21:18:06.838Z,7.15
2023-04-17T21:23:07.479Z,7.17
2023-04-17T21:28:09.392Z,7.22
2023-04-17T21:33:10.033Z,7.19
2023-04-17T21:38:10.675Z,7.21
2023-04-17T21:43:12.615Z,7.26
2023-04-17T21:48:15.121Z,7.21
2023-04-17T21:53:15.768Z,7.29
2023-04-17T21:58:17.665Z,7.30
2023-04-17T22:03:18.733Z,7.26
2023-04-17T22:08:19.323Z,7.28
2023-04-17T22:13:21.272Z,7.30
2023-04-17T22:18:21.892Z,7.37
2023-04-17T22:23:22.482Z,7.43
2023-04-17T22:28:25.661Z,7.38
2023-04-17T22:33:26.459Z,7.35
2023-04-17T22:38:27.072Z,7.34
2023-04-17T22:43:28.955Z,7.33
2023-04-17T22:48:29.536Z,7.21
2023-04-17T22:53:31.437Z,7.22
2023-04-17T22:58:34.944Z,7.20
2023-04-17T23:03:35.735Z,7.34
2023-04-17T23:08:36.320Z,7.33
2023-04-17T23:13:38.237Z,7.43
2023-04-17T23:18:38.816Z,7.36
2023-04-17T23:23:39.406Z,7.29
2023-04-17T23:28:41.407Z,7.35
2023-04-17T23:33:41.959Z,7.34
2023-04-17T23:38:42.632Z,7.49
2023-04-17T23:43:44.652Z,7.48
2023-04-17T23:48:45.218Z,7.59
2023-04-17T23:53:46.321Z,7.57
2023-04-17T23:58:48.200Z,7.64
